createdAt,value
2022-09-05T00:00:45.196Z,100482.70
2022-09-05T00:06:15.233Z,100481.02
2022-09-05T00:11:54.070Z,100477.00
2022-09-05T00:19:35.456Z,100474.07
2022-09-05T00:24:34.359Z,100474.84
2022-09-05T00:31:50.494Z,100474.34
2022-09-05T00:36:08.618Z,100473.57
2022-09-05T00:41:34.155Z,100471.55
2022-09-05T00:47:18.466Z,100469.80
2022-09-05T00:53:06.722Z,100465.06
2022-09-05T00:58:58.950Z,100464.10
2022-09-05T01:04:48.725Z,100465.58
2022-09-05T01:10:26.532Z,100464.52
2022-09-05T01:16:22.313Z,100470.90
2022-09-05T01:22:24.777Z,100473.69
2022-09-05T01:29:18.641Z,100473.64
2022-09-05T01:34:32.742Z,100472.48
2022-09-05T01:40:17.101Z,100476.67
2022-09-05T01:45:51.572Z,100477.98
2022-09-05T01:51:46.276Z,100480.58
2022-09-05T01:57:19.739Z,100485.70
2022-09-05T02:03:20.636Z,100484.09
2022-09-05T02:09:00.413Z,100488.60
2022-09-05T02:14:44.658Z,100486.70
2022-09-05T02:20:26.015Z,100489.63
2022-09-05T02:26:23.439Z,100497.59
2022-09-05T02:31:56.316Z,100497.11
2022-09-05T02:37:26.280Z,100503.30
2022-09-05T02:45:16.999Z,100504.38
2022-09-05T02:50:02.942Z,100502.83
2022-09-05T02:57:41.360Z,100502.04
2022-09-05T03:01:13.483Z,100504.35
2022-09-05T03:06:55.973Z,100508.46
2022-09-05T03:12:41.217Z,100506.98
2022-09-05T03:18:48.981Z,100506.31
2022-09-05T03:25:06.688Z,100504.20
2022-09-05T03:30:56.512Z,100508.23
2022-09-05T03:37:07.155Z,100503.42
2022-09-05T03:42:57.973Z,100510.96
2022-09-05T03:49:04.167Z,100505.14
2022-09-05T03:57:27.902Z,100516.33
2022-09-05T04:03:17.906Z,100515.80
2022-09-05T04:08:27.563Z,100519.64
2022-09-05T04:13:01.890Z,100523.41
2022-09-05T04:18:34.820Z,100529.41
2022-09-05T04:24:28.487Z,100536.63
2022-09-05T04:30:39.800Z,100546.02
2022-09-05T04:36:33.280Z,100553.58
2022-09-05T04:42:05.802Z,100559.74
2022-09-05T04:47:43.028Z,100561.94
2022-09-05T04:53:39.341Z,100576.04
2022-09-05T05:03:31.304Z,100581.20
2022-09-05T05:06:08.546Z,100586.23
2022-09-05T05:17:07.543Z,100588.31
2022-09-05T05:18:06.172Z,100595.77
2022-09-05T05:23:17.178Z,100599.95
2022-09-05T05:28:50.588Z,100595.65
2022-09-05T05:34:34.675Z,100598.55
2022-09-05T05:40:16.983Z,100602.52
2022-09-05T05:45:38.175Z,100605.94
2022-09-05T05:52:02.593Z,100610.02
2022-09-05T05:57:44.540Z,100619.83
2022-09-05T06:03:25.308Z,100619.57
2022-09-05T06:12:50.815Z,100626.21
2022-09-05T06:15:27.015Z,100637.52
2022-09-05T06:22:10.652Z,100639.22
2022-09-05T06:27:30.674Z,100641.09
2022-09-05T06:32:58.617Z,100646.85
2022-09-05T06:38:59.499Z,100649.09
2022-09-05T06:44:52.719Z,100647.84
2022-09-05T06:50:27.783Z,100645.24
2022-09-05T06:56:25.976Z,100649.70
2022-09-05T07:02:07.848Z,100651.48
2022-09-05T07:08:20.430Z,100656.08
2022-09-05T07:13:57.999Z,100659.89
2022-09-05T07:19:30.288Z,100662.95
2022-09-05T07:24:55.697Z,100666.05
2022-09-05T07:30:19.640Z,100666.04
2022-09-05T07:35:41.904Z,100667.02
2022-09-05T07:41:18.742Z,100670.75
2022-09-05T07:46:42.034Z,100667.86
2022-09-05T07:56:51.538Z,100666.30
2022-09-05T07:58:08.197Z,100668.85
2022-09-05T08:03:29.598Z,100671.80
2022-09-05T08:10:05.368Z,100674.59
2022-09-05T08:15:41.008Z,100668.26
2022-09-05T08:21:32.732Z,100665.71
2022-09-05T08:27:16.327Z,100664.52
2022-09-05T08:32:53.307Z,100661.34
2022-09-05T08:38:19.995Z,100657.54
2022-09-05T08:46:37.001Z,100658.14
2022-09-05T08:49:47.732Z,100648.17
2022-09-05T08:56:10.495Z,100648.17
2022-09-05T09:02:32.867Z,100645.88
2022-09-05T09:07:51.519Z,100634.80
2022-09-05T09:13:33.703Z,100631.83
2022-09-05T09:18:57.540Z,100631.98
2022-09-05T09:24:33.677Z,100631.20
2022-09-05T09:30:01.890Z,100614.29
2022-09-05T09:35:48.570Z,100607.98
2022-09-05T09:41:47.092Z,100606.85
2022-09-05T09:47:15.288Z,100611.77
2022-09-05T09:53:04.610Z,100606.22
2022-09-05T09:58:38.729Z,100610.69
2022-09-05T10:10:38.326Z,100607.19
2022-09-05T10:10:59.753Z,100606.46
2022-09-05T10:16:53.116Z,100593.94
2022-09-05T10:22:36.525Z,100586.96
2022-09-05T10:28:22.363Z,100578.98
2022-09-05T10:35:14.709Z,100581.25
2022-09-05T10:39:52.557Z,100579.77
2022-09-05T10:45:49.793Z,100574.21
2022-09-05T10:51:37.838Z,100569.37
2022-09-05T10:57:36.185Z,100572.70
2022-09-05T11:03:03.796Z,100572.14
2022-09-05T11:09:00.479Z,100573.05
2022-09-05T11:14:53.589Z,100566.48
2022-09-05T11:20:37.981Z,100567.23
2022-09-05T11:26:10.000Z,100564.89
2022-09-05T11:32:00.530Z,100561.88
2022-09-05T11:39:56.070Z,100563.49
2022-09-05T11:44:24.623Z,100560.79
2022-09-05T11:50:22.281Z,100558.48
2022-09-05T11:56:44.054Z,100548.92
2022-09-05T12:02:32.876Z,100557.11
2022-09-05T12:08:02.032Z,100555.16
2022-09-05T12:13:52.680Z,100545.08
2022-09-05T12:19:39.393Z,100535.39
2022-09-05T12:27:38.100Z,100527.19
2022-09-05T12:32:34.413Z,100521.77
2022-09-05T12:40:51.919Z,100526.95
2022-09-05T12:44:04.666Z,100521.25
2022-09-05T12:49:15.815Z,100514.77
2022-09-05T12:54:54.681Z,100512.88
2022-09-05T13:03:09.382Z,100505.69
2022-09-05T13:06:11.609Z,100496.13
2022-09-05T13:14:57.927Z,100496.92
2022-09-05T13:18:24.710Z,100494.87
2022-09-05T13:24:22.320Z,100487.55
2022-09-05T13:33:01.936Z,100484.48
2022-09-05T13:38:10.557Z,100485.73
2022-09-05T13:41:59.691Z,100482.00
2022-09-05T13:48:02.008Z,100480.48
2022-09-05T13:53:54.792Z,100479.70
2022-09-05T13:59:19.914Z,100478.09
2022-09-05T14:05:19.377Z,100474.75
2022-09-05T14:10:50.078Z,100477.59
2022-09-05T14:16:24.750Z,100473.50
2022-09-05T14:21:47.578Z,100474.04
2022-09-05T14:27:31.969Z,100470.55
2022-09-05T14:37:42.125Z,100467.20
2022-09-05T14:39:07.879Z,100468.35
2022-09-05T14:44:41.612Z,100470.48
2022-09-05T14:50:07.536Z,100467.52
2022-09-05T15:02:51.983Z,100462.58
2022-09-05T15:05:50.735Z,100466.45
2022-09-05T15:12:24.944Z,100461.21
2022-09-05T15:16:24.488Z,100459.48
2022-09-05T15:21:38.505Z,100452.09
2022-09-05T15:26:54.397Z,100447.84
2022-09-05T15:32:22.880Z,100448.21
2022-09-05T15:37:37.171Z,100445.24
2022-09-05T15:42:59.419Z,100439.48
2022-09-05T15:48:22.916Z,100444.40
2022-09-05T15:53:38.399Z,100444.81
2022-09-05T15:59:00.411Z,100431.61
2022-09-05T16:08:18.301Z,100430.52
2022-09-05T16:10:57.578Z,100427.64
2022-09-05T16:16:15.681Z,100416.63
2022-09-05T16:23:32.905Z,100418.27
2022-09-05T16:26:32.220Z,100415.77
2022-09-05T16:31:47.170Z,100413.70
2022-09-05T16:37:08.481Z,100413.73
2022-09-05T16:42:46.989Z,100412.89
2022-09-05T16:48:29.164Z,100414.48
2022-09-05T16:53:58.002Z,100415.59
2022-09-05T16:59:20.150Z,100419.08
2022-09-05T17:04:29.642Z,100418.32
2022-09-05T17:09:37.487Z,100414.89
2022-09-05T17:14:53.481Z,100416.25
2022-09-05T17:20:06.776Z,100415.58
2022-09-05T17:29:32.868Z,100419.00
2022-09-05T17:31:56.194Z,100417.13
2022-09-05T17:37:11.791Z,100416.36
2022-09-05T17:43:06.524Z,100419.71
2022-09-05T17:48:19.469Z,100425.75
2022-09-05T17:53:26.603Z,100433.61
2022-09-05T17:58:48.798Z,100438.92
2022-09-05T18:03:55.762Z,100444.21
2022-09-05T18:09:37.132Z,100446.30
2022-09-05T18:14:46.784Z,100445.38
2022-09-05T18:20:06.259Z,100444.18
2022-09-05T18:25:30.612Z,100448.51
2022-09-05T18:30:38.287Z,100450.56
2022-09-05T18:36:25.451Z,100449.16
2022-09-05T18:41:38.770Z,100455.29
2022-09-05T18:46:53.869Z,100458.21
2022-09-05T18:52:25.456Z,100459.74
2022-09-05T18:57:38.054Z,100455.44
2022-09-05T19:02:58.430Z,100451.05
2022-09-05T19:08:28.808Z,100451.66
2022-09-05T19:13:42.740Z,100446.16
2022-09-05T19:19:08.788Z,100441.64
2022-09-05T19:24:15.735Z,100439.55
2022-09-05T19:36:52.190Z,100438.40
2022-09-05T19:36:55.710Z,100436.02
2022-09-05T19:43:48.350Z,100432.37
2022-09-05T19:47:43.623Z,100430.14
2022-09-05T19:51:16.884Z,100429.88
2022-09-05T19:56:23.775Z,100427.49
2022-09-05T20:01:27.534Z,100424.06
2022-09-05T20:06:31.234Z,100425.40
2022-09-05T20:11:45.328Z,100427.64
2022-09-05T20:16:52.586Z,100423.44
2022-09-05T20:22:11.485Z,100423.88
2022-09-05T20:27:30.647Z,100417.67
2022-09-05T20:32:46.345Z,100415.91
2022-09-05T20:43:17.937Z,100413.03
2022-09-05T20:43:40.696Z,100413.77
2022-09-05T20:54:07.958Z,100420.73
2022-09-05T20:54:31.957Z,100409.52
2022-09-05T20:59:35.502Z,100410.40
2022-09-05T21:04:38.941Z,100411.47
2022-09-05T21:09:59.902Z,100406.40
2022-09-05T21:15:52.197Z,100406.54
2022-09-05T21:21:00.399Z,100409.91
2022-09-05T21:26:07.427Z,100407.25
2022-09-05T21:31:16.105Z,100402.27
2022-09-05T21:36:20.254Z,100400.94
2022-09-05T21:41:26.192Z,100413.11
2022-09-05T21:47:46.669Z,100411.12
2022-09-05T21:51:59.063Z,100412.27
2022-09-05T21:59:17.485Z,100416.15
2022-09-05T22:02:32.707Z,100423.38
2022-09-05T22:07:36.806Z,100433.30
2022-09-05T22:12:40.562Z,100427.71
2022-09-05T22:17:45.505Z,100427.77
2022-09-05T22:22:56.515Z,100427.02
2022-09-05T22:28:17.813Z,100425.04
2022-09-05T22:33:21.111Z,100420.08
2022-09-05T22:38:24.900Z,100417.02
2022-09-05T22:43:31.282Z,100420.14
2022-09-05T22:48:34.754Z,100417.86
2022-09-05T22:53:37.699Z,100420.48
2022-09-05T22:58:44.456Z,100420.75
2022-09-05T23:03:47.558Z,100418.55
2022-09-05T23:08:50.736Z,100413.72
2022-09-05T23:13:53.832Z,100414.23
2022-09-05T23:18:57.084Z,100413.72
2022-09-05T23:24:00.127Z,100415.52
2022-09-05T23:29:03.236Z,100415.26
2022-09-05T23:34:06.310Z,100416.19
2022-09-05T23:39:12.273Z,100416.27
2022-09-05T23:44:15.329Z,100409.45
2022-09-05T23:49:18.418Z,100408.65
2022-09-05T23:54:21.495Z,100412.56
2022-09-05T23:59:24.564Z,100410.49
